createdAt,value
2019-05-30T00:00:20.194Z,4.70
2019-05-30T00:02:54.027Z,3.98
2019-05-30T00:05:27.235Z,4.47
2019-05-30T00:08:00.344Z,4.25
2019-05-30T00:13:05.186Z,3.30
2019-05-30T00:15:37.747Z,5.05
2019-05-30T00:18:10.635Z,4.65
2019-05-30T00:20:43.347Z,4.65
2019-05-30T00:23:15.806Z,4.50
2019-05-30T00:25:48.189Z,4.40
2019-05-30T00:28:20.882Z,4.85
2019-05-30T00:30:53.056Z,4.53
2019-05-30T00:33:25.975Z,4.85
2019-05-30T00:35:59.851Z,4.87
2019-05-30T00:38:32.299Z,4.30
2019-05-30T00:41:06.222Z,4.75
2019-05-30T00:43:38.903Z,4.60
2019-05-30T00:46:10.968Z,4.85
2019-05-30T00:48:44.272Z,4.37
2019-05-30T00:51:16.304Z,4.25
2019-05-30T00:53:48.452Z,4.90
2019-05-30T00:56:20.847Z,4.55
2019-05-30T00:58:53.757Z,4.10
2019-05-30T01:01:25.812Z,3.90
2019-05-30T01:03:58.761Z,3.85
2019-05-30T01:06:31.365Z,4.67
2019-05-30T01:09:03.439Z,4.55
2019-05-30T01:11:35.928Z,5.30
2019-05-30T01:14:08.587Z,4.33
2019-05-30T01:16:42.718Z,4.45
2019-05-30T01:19:15.949Z,4.37
2019-05-30T01:21:48.351Z,3.93
2019-05-30T01:24:20.411Z,4.40
2019-05-30T01:26:52.755Z,4.70
2019-05-30T01:29:25.685Z,5.42
2019-05-30T01:31:57.820Z,4.78
2019-05-30T01:34:30.459Z,5.20
2019-05-30T01:37:03.762Z,4.90
2019-05-30T01:39:36.167Z,4.80
2019-05-30T01:42:09.123Z,4.83
2019-05-30T01:44:42.100Z,5.00
2019-05-30T01:47:14.412Z,5.10
2019-05-30T01:49:47.173Z,4.70
2019-05-30T01:52:19.536Z,4.35
2019-05-30T01:54:52.329Z,5.15
2019-05-30T01:57:24.953Z,4.75
2019-05-30T01:59:58.681Z,4.42
2019-05-30T02:02:31.609Z,4.65
2019-05-30T02:05:03.677Z,4.20
2019-05-30T02:07:36.596Z,4.85
2019-05-30T02:10:10.360Z,3.83
2019-05-30T02:12:42.948Z,4.50
2019-05-30T02:15:15.911Z,4.67
2019-05-30T02:17:48.210Z,4.00
2019-05-30T02:20:20.834Z,4.83
2019-05-30T02:22:52.894Z,5.50
2019-05-30T02:25:25.728Z,4.78
2019-05-30T02:27:58.543Z,3.58
2019-05-30T02:30:30.990Z,4.67
2019-05-30T02:33:05.310Z,4.00
2019-05-30T02:35:38.388Z,5.17
2019-05-30T02:38:11.851Z,5.87
2019-05-30T02:40:45.116Z,4.17
2019-05-30T02:43:17.873Z,4.62
2019-05-30T02:45:51.280Z,4.53
2019-05-30T02:48:24.083Z,5.20
2019-05-30T02:50:56.834Z,4.30
2019-05-30T02:53:28.979Z,4.40
2019-05-30T02:56:03.565Z,4.33
2019-05-30T02:58:35.813Z,4.70
2019-05-30T03:01:11.108Z,4.47
2019-05-30T03:03:43.344Z,5.47
2019-05-30T03:06:16.033Z,4.15
2019-05-30T03:08:49.097Z,4.70
2019-05-30T03:11:21.610Z,4.77
2019-05-30T03:13:54.406Z,4.33
2019-05-30T03:16:26.572Z,4.80
2019-05-30T03:18:58.752Z,4.50
2019-05-30T03:21:30.915Z,5.37
2019-05-30T03:24:05.036Z,5.00
2019-05-30T03:26:37.971Z,4.42
2019-05-30T03:29:12.042Z,3.57
2019-05-30T03:31:45.797Z,5.67
2019-05-30T03:34:27.888Z,4.78
2019-05-30T03:36:52.874Z,4.40
2019-05-30T03:39:25.645Z,4.67
2019-05-30T03:41:58.370Z,4.75
2019-05-30T03:44:31.025Z,4.85
2019-05-30T03:47:08.720Z,5.50
2019-05-30T03:49:45.477Z,4.87
2019-05-30T03:52:20.884Z,4.95
2019-05-30T03:54:54.650Z,4.45
2019-05-30T03:57:34.464Z,4.60
2019-05-30T04:00:16.008Z,4.22
2019-05-30T04:03:06.690Z,4.33
2019-05-30T04:05:46.697Z,4.40
2019-05-30T04:08:23.404Z,4.92
2019-05-30T04:11:00.438Z,5.30
2019-05-30T04:13:50.622Z,4.87
2019-05-30T04:16:26.820Z,4.53
2019-05-30T04:19:02.756Z,4.90
2019-05-30T04:21:38.825Z,5.65
2019-05-30T04:24:12.349Z,6.10
2019-05-30T04:26:45.811Z,5.25
2019-05-30T04:29:19.149Z,5.42
2019-05-30T04:31:52.157Z,6.58
2019-05-30T04:34:24.348Z,5.85
2019-05-30T04:36:56.449Z,5.60
2019-05-30T04:39:28.845Z,6.28
2019-05-30T04:42:01.145Z,7.20
2019-05-30T04:44:33.414Z,7.33
2019-05-30T04:47:05.462Z,7.37
2019-05-30T04:49:37.838Z,6.90
2019-05-30T04:52:15.369Z,7.50
2019-05-30T04:54:45.018Z,7.45
2019-05-30T04:57:18.681Z,8.00
2019-05-30T04:59:51.310Z,6.97
2019-05-30T05:02:23.763Z,7.73
2019-05-30T05:04:57.210Z,8.73
2019-05-30T05:07:29.562Z,9.58
2019-05-30T05:10:01.969Z,8.65
2019-05-30T05:12:35.030Z,9.10
2019-05-30T05:15:07.818Z,9.23
2019-05-30T05:17:39.874Z,9.23
2019-05-30T05:20:13.234Z,9.95
2019-05-30T05:22:45.891Z,8.70
2019-05-30T05:25:19.509Z,9.48
2019-05-30T05:27:52.564Z,8.78
2019-05-30T05:30:24.974Z,9.70
2019-05-30T05:32:57.341Z,9.28
2019-05-30T05:35:29.832Z,6.45
2019-05-30T05:38:02.731Z,10.08
2019-05-30T05:40:35.154Z,9.35
2019-05-30T05:43:07.307Z,7.72
2019-05-30T05:45:40.045Z,11.45
2019-05-30T05:48:12.456Z,10.05
2019-05-30T05:50:44.866Z,11.38
2019-05-30T05:53:16.955Z,11.90
2019-05-30T05:55:49.359Z,10.68
2019-05-30T05:58:23.897Z,11.20
2019-05-30T06:00:57.347Z,10.20
2019-05-30T06:03:30.264Z,11.48
2019-05-30T06:06:02.924Z,12.25
2019-05-30T06:08:35.354Z,11.88
2019-05-30T06:11:07.737Z,12.95
2019-05-30T06:13:40.581Z,8.88
2019-05-30T06:16:12.951Z,11.80
2019-05-30T06:18:45.337Z,11.20
2019-05-30T06:21:17.848Z,9.73
2019-05-30T06:23:50.482Z,10.50
2019-05-30T06:26:24.348Z,9.70
2019-05-30T06:28:57.691Z,9.93
2019-05-30T06:31:30.308Z,9.83
2019-05-30T06:34:02.391Z,10.05
2019-05-30T06:36:35.145Z,9.78
2019-05-30T06:39:09.415Z,9.48
2019-05-30T06:41:42.755Z,10.10
2019-05-30T06:46:45.681Z,7.97
2019-05-30T06:49:18.689Z,8.60
2019-05-30T06:54:24.218Z,8.43
2019-05-30T06:56:56.721Z,8.88
2019-05-30T06:59:29.785Z,7.45
2019-05-30T07:04:50.460Z,7.53
2019-05-30T07:07:08.014Z,8.00
2019-05-30T07:09:40.729Z,8.43
2019-05-30T07:12:13.263Z,7.72
2019-05-30T07:14:46.095Z,7.90
2019-05-30T07:17:19.076Z,7.45
2019-05-30T07:19:51.595Z,7.60
2019-05-30T07:22:25.586Z,7.75
2019-05-30T07:24:58.375Z,8.97
2019-05-30T07:27:31.989Z,8.55
2019-05-30T07:30:05.677Z,8.90
2019-05-30T07:32:38.062Z,8.17
2019-05-30T07:35:11.057Z,7.62
2019-05-30T07:37:46.535Z,7.43
2019-05-30T07:40:19.819Z,7.63
2019-05-30T07:42:52.302Z,6.70
2019-05-30T07:45:25.244Z,6.70
2019-05-30T07:47:57.642Z,6.03
2019-05-30T07:50:30.445Z,6.05
2019-05-30T07:53:02.989Z,6.67
2019-05-30T07:55:35.209Z,6.20
2019-05-30T07:58:07.693Z,5.05
2019-05-30T08:00:40.399Z,5.37
2019-05-30T08:05:43.217Z,4.78
2019-05-30T08:08:16.398Z,4.62
2019-05-30T08:10:48.599Z,4.60
2019-05-30T08:13:21.516Z,4.80
2019-05-30T08:15:54.378Z,4.95
2019-05-30T08:18:27.579Z,4.47
2019-05-30T08:21:00.723Z,5.50
2019-05-30T08:23:34.259Z,4.60
2019-05-30T08:26:06.345Z,4.83
2019-05-30T08:28:41.977Z,3.77
2019-05-30T08:31:13.450Z,4.30
2019-05-30T08:33:47.426Z,2.92
2019-05-30T08:36:19.142Z,2.37
2019-05-30T08:38:51.856Z,3.05
2019-05-30T08:41:23.702Z,2.27
2019-05-30T08:43:56.189Z,2.30
2019-05-30T08:49:01.858Z,2.08
2019-05-30T08:51:34.189Z,2.67
2019-05-30T08:54:06.267Z,2.67
2019-05-30T08:56:39.067Z,2.30
2019-05-30T08:59:11.413Z,2.60
2019-05-30T09:01:44.187Z,2.33
2019-05-30T09:04:16.584Z,2.00
2019-05-30T09:06:49.116Z,2.35
2019-05-30T09:09:21.547Z,2.77
2019-05-30T09:11:56.718Z,2.87
2019-05-30T09:14:28.904Z,2.67
2019-05-30T09:19:32.069Z,2.52
2019-05-30T09:24:35.273Z,2.58
2019-05-30T09:27:07.841Z,2.60
2019-05-30T09:29:41.662Z,2.33
2019-05-30T09:32:14.169Z,2.67
2019-05-30T09:34:47.403Z,2.08
2019-05-30T09:37:19.531Z,2.08
2019-05-30T09:39:51.763Z,2.10
2019-05-30T09:42:24.288Z,1.90
2019-05-30T09:44:56.499Z,1.63
2019-05-30T09:47:29.199Z,1.60
2019-05-30T09:50:03.917Z,1.70
2019-05-30T09:52:35.475Z,1.60
2019-05-30T09:55:10.177Z,1.57
2019-05-30T09:57:44.188Z,1.10
2019-05-30T10:00:19.556Z,1.00
2019-05-30T10:02:52.532Z,1.20
2019-05-30T10:05:25.789Z,0.90
2019-05-30T10:07:57.775Z,1.30
2019-05-30T10:10:30.550Z,1.20
2019-05-30T10:13:03.516Z,1.10
2019-05-30T10:15:35.319Z,1.20
2019-05-30T10:18:07.654Z,1.40
2019-05-30T10:20:39.949Z,1.15
2019-05-30T10:23:12.354Z,1.30
2019-05-30T10:25:46.754Z,1.25
2019-05-30T10:28:19.058Z,1.07
2019-05-30T10:30:57.357Z,1.50
2019-05-30T10:33:26.842Z,1.30
2019-05-30T10:35:59.317Z,1.37
2019-05-30T10:38:32.407Z,1.03
2019-05-30T10:41:05.410Z,0.90
2019-05-30T10:43:37.821Z,0.98
2019-05-30T10:46:10.203Z,1.12
2019-05-30T10:48:42.359Z,1.10
2019-05-30T10:51:15.628Z,1.10
2019-05-30T10:53:49.079Z,1.00
2019-05-30T10:56:22.728Z,1.22
2019-05-30T10:58:55.740Z,1.10
2019-05-30T11:01:28.045Z,1.22
2019-05-30T11:04:00.848Z,0.93
2019-05-30T11:07:06.808Z,1.35
2019-05-30T11:09:27.355Z,1.20
2019-05-30T11:12:00.230Z,1.12
2019-05-30T11:14:32.502Z,1.27
2019-05-30T11:17:04.623Z,1.00
2019-05-30T11:19:36.902Z,0.93
2019-05-30T11:22:08.693Z,1.40
2019-05-30T11:27:12.574Z,1.07
2019-05-30T11:29:44.997Z,1.10
2019-05-30T11:32:17.474Z,1.27
2019-05-30T11:34:51.064Z,1.42
2019-05-30T11:37:23.875Z,1.00
2019-05-30T11:39:57.312Z,1.20
2019-05-30T11:42:29.915Z,1.12
2019-05-30T11:45:02.822Z,0.93
2019-05-30T11:47:35.238Z,1.20
2019-05-30T11:50:08.006Z,1.20
2019-05-30T11:52:40.493Z,1.05
2019-05-30T11:55:14.742Z,1.40
2019-05-30T11:57:46.542Z,1.00
2019-05-30T12:02:50.252Z,1.17
2019-05-30T12:05:23.802Z,1.50
2019-05-30T12:07:57.005Z,1.20
2019-05-30T12:10:29.836Z,1.10
2019-05-30T12:13:02.616Z,1.17
2019-05-30T12:15:34.874Z,1.10
2019-05-30T12:18:07.084Z,0.82
2019-05-30T12:20:40.125Z,1.10
2019-05-30T12:23:12.625Z,1.10
2019-05-30T12:25:45.204Z,0.98
2019-05-30T12:28:17.574Z,1.17
2019-05-30T12:30:56.635Z,1.55
2019-05-30T12:33:24.364Z,1.10
2019-05-30T12:35:56.502Z,1.15
2019-05-30T12:38:29.233Z,1.27
2019-05-30T12:41:02.999Z,1.20
2019-05-30T12:43:35.128Z,1.00
2019-05-30T12:46:07.703Z,1.30
2019-05-30T12:48:40.284Z,1.30
2019-05-30T12:51:12.769Z,1.45
2019-05-30T12:53:44.907Z,1.07
2019-05-30T12:56:16.982Z,1.10
2019-05-30T12:58:49.417Z,1.25
2019-05-30T13:01:21.749Z,1.10
2019-05-30T13:03:54.775Z,1.00
2019-05-30T13:06:26.801Z,1.10
2019-05-30T13:08:59.069Z,0.98
2019-05-30T13:11:31.531Z,1.30
2019-05-30T13:14:03.373Z,1.27
2019-05-30T13:19:07.676Z,1.07
2019-05-30T13:21:40.490Z,1.00
2019-05-30T13:24:13.027Z,1.40
2019-05-30T13:26:45.438Z,0.90
2019-05-30T13:29:17.574Z,1.22
2019-05-30T13:31:49.600Z,0.82
2019-05-30T13:34:23.173Z,1.27
2019-05-30T13:36:56.847Z,0.95
2019-05-30T13:39:29.361Z,1.22
2019-05-30T13:42:02.091Z,1.12
2019-05-30T13:44:34.333Z,1.12
2019-05-30T13:47:06.713Z,1.72
2019-05-30T13:49:38.862Z,1.77
2019-05-30T13:52:10.833Z,1.17
2019-05-30T13:54:43.449Z,1.60
2019-05-30T13:57:16.130Z,1.00
2019-05-30T13:59:48.322Z,9.00
2019-05-30T14:04:52.256Z,1.90
2019-05-30T14:07:25.097Z,1.25
2019-05-30T14:09:57.844Z,1.80
2019-05-30T14:12:30.365Z,1.50
2019-05-30T14:15:09.210Z,1.40
2019-05-30T14:17:38.503Z,1.57
2019-05-30T14:20:11.545Z,1.40
2019-05-30T14:22:43.667Z,1.30
2019-05-30T14:25:17.985Z,1.17
2019-05-30T14:27:50.645Z,2.83
2019-05-30T14:30:23.835Z,1.20
2019-05-30T14:32:56.059Z,1.10
2019-05-30T14:35:28.530Z,1.07
2019-05-30T14:38:00.626Z,1.85
2019-05-30T14:40:32.945Z,1.40
2019-05-30T14:43:05.274Z,1.30
2019-05-30T14:45:38.296Z,1.00
2019-05-30T14:48:10.690Z,1.00
2019-05-30T14:50:43.137Z,1.25
2019-05-30T14:53:17.122Z,1.10
2019-05-30T14:55:49.460Z,1.00
2019-05-30T14:58:22.029Z,1.00
2019-05-30T15:00:54.491Z,0.90
2019-05-30T15:03:26.776Z,1.22
2019-05-30T15:05:58.828Z,1.30
2019-05-30T15:08:30.946Z,0.90
2019-05-30T15:11:03.669Z,0.90
2019-05-30T15:13:36.121Z,3.00
2019-05-30T15:16:08.789Z,1.52
2019-05-30T15:18:41.477Z,1.63
2019-05-30T15:21:14.605Z,1.30
2019-05-30T15:23:47.293Z,1.10
2019-05-30T15:26:19.908Z,1.00
2019-05-30T15:28:52.089Z,1.12
2019-05-30T15:31:24.251Z,1.10
2019-05-30T15:33:56.985Z,3.12
2019-05-30T15:36:28.778Z,1.40
2019-05-30T15:39:00.601Z,1.10
2019-05-30T15:41:33.230Z,1.90
2019-05-30T15:44:07.417Z,5.60
2019-05-30T15:46:41.067Z,1.80
2019-05-30T15:49:14.333Z,2.52
2019-05-30T15:51:46.813Z,1.20
2019-05-30T15:54:19.249Z,1.77
2019-05-30T15:56:51.712Z,1.98
2019-05-30T15:59:24.436Z,1.05
2019-05-30T16:01:56.742Z,1.10
2019-05-30T16:04:28.792Z,1.10
2019-05-30T16:07:01.205Z,1.02
2019-05-30T16:09:46.251Z,0.90
2019-05-30T16:12:08.033Z,1.03
2019-05-30T16:14:39.889Z,0.80
2019-05-30T16:17:13.888Z,1.00
2019-05-30T16:19:46.947Z,1.77
2019-05-30T16:22:20.443Z,0.75
2019-05-30T16:24:53.218Z,1.10
2019-05-30T16:27:26.060Z,0.88
2019-05-30T16:29:58.962Z,0.80
2019-05-30T16:32:31.315Z,0.78
2019-05-30T16:35:03.452Z,0.80
2019-05-30T16:37:36.696Z,0.90
2019-05-30T16:40:10.166Z,1.05
2019-05-30T16:42:42.846Z,0.70
2019-05-30T16:45:20.245Z,0.95
2019-05-30T16:47:49.694Z,1.20
2019-05-30T16:50:25.016Z,0.90
2019-05-30T16:52:57.647Z,1.02
2019-05-30T16:55:30.113Z,1.00
2019-05-30T16:58:02.530Z,0.85
2019-05-30T17:00:34.698Z,0.80
2019-05-30T17:03:07.858Z,1.07
2019-05-30T17:05:39.849Z,0.90
2019-05-30T17:08:12.600Z,0.82
2019-05-30T17:10:45.955Z,1.07
2019-05-30T17:13:17.784Z,1.10
2019-05-30T17:15:50.121Z,1.22
2019-05-30T17:18:22.405Z,1.17
2019-05-30T17:20:55.387Z,1.00
2019-05-30T17:23:28.467Z,1.03
2019-05-30T17:26:00.972Z,1.00
2019-05-30T17:28:33.902Z,0.90
2019-05-30T17:31:07.280Z,1.00
2019-05-30T17:33:39.599Z,1.60
2019-05-30T17:36:12.192Z,1.20
2019-05-30T17:38:44.061Z,1.07
2019-05-30T17:41:16.701Z,1.05
2019-05-30T17:43:48.842Z,1.50
2019-05-30T17:48:53.233Z,1.10
2019-05-30T17:51:26.142Z,1.30
2019-05-30T17:53:58.581Z,1.30
2019-05-30T17:56:31.245Z,1.45
2019-05-30T17:59:03.423Z,1.50
2019-05-30T18:01:35.230Z,1.52
2019-05-30T18:04:08.260Z,0.90
2019-05-30T18:06:40.700Z,1.30
2019-05-30T18:09:12.879Z,1.30
2019-05-30T18:11:44.790Z,1.20
2019-05-30T18:14:17.324Z,1.17
2019-05-30T18:19:23.180Z,1.47
2019-05-30T18:21:56.297Z,1.53
2019-05-30T18:24:29.636Z,1.27
2019-05-30T18:27:02.784Z,2.00
2019-05-30T18:29:35.971Z,1.77
2019-05-30T18:32:08.169Z,1.47
2019-05-30T18:34:41.130Z,1.47
2019-05-30T18:37:13.547Z,1.30
2019-05-30T18:42:18.086Z,1.40
2019-05-30T18:44:50.949Z,1.30
2019-05-30T18:47:23.185Z,1.27
2019-05-30T18:49:56.263Z,1.30
2019-05-30T18:52:29.018Z,1.32
2019-05-30T18:55:05.219Z,1.40
2019-05-30T18:57:37.317Z,1.37
2019-05-30T19:00:14.431Z,1.30
2019-05-30T19:02:47.141Z,1.50
2019-05-30T19:05:19.349Z,1.10
2019-05-30T19:07:51.945Z,1.20
2019-05-30T19:10:24.380Z,1.37
2019-05-30T19:12:57.257Z,1.27
2019-05-30T19:15:31.497Z,1.30
2019-05-30T19:18:03.965Z,1.37
2019-05-30T19:20:36.645Z,1.40
2019-05-30T19:23:09.292Z,1.80
2019-05-30T19:25:42.068Z,1.42
2019-05-30T19:28:14.796Z,1.37
2019-05-30T19:33:20.701Z,1.55
2019-05-30T19:35:53.843Z,1.57
2019-05-30T19:38:27.291Z,1.40
2019-05-30T19:40:59.900Z,1.50
2019-05-30T19:43:33.726Z,2.95
2019-05-30T19:46:05.625Z,2.40
2019-05-30T19:48:38.548Z,2.40
2019-05-30T19:53:42.381Z,1.67
2019-05-30T19:56:14.757Z,2.10
2019-05-30T19:58:47.137Z,2.00
2019-05-30T20:01:20.384Z,1.70
2019-05-30T20:03:52.926Z,2.00
2019-05-30T20:06:25.559Z,1.75
2019-05-30T20:08:57.913Z,1.60
2019-05-30T20:11:30.877Z,1.67
2019-05-30T20:14:03.335Z,2.10
2019-05-30T20:16:36.062Z,2.05
2019-05-30T20:19:08.129Z,2.03
2019-05-30T20:21:41.830Z,1.92
2019-05-30T20:24:14.363Z,1.92
2019-05-30T20:26:46.778Z,1.82
2019-05-30T20:29:19.920Z,1.77
2019-05-30T20:31:51.757Z,1.98
2019-05-30T20:34:24.408Z,1.98
2019-05-30T20:36:57.179Z,1.90
2019-05-30T20:42:00.790Z,1.90
2019-05-30T20:44:33.198Z,1.72
2019-05-30T20:47:06.047Z,1.80
2019-05-30T20:52:10.179Z,1.72
2019-05-30T20:54:43.518Z,1.90
2019-05-30T20:57:16.147Z,1.83
2019-05-30T20:59:48.526Z,2.17
2019-05-30T21:02:20.949Z,2.17
2019-05-30T21:04:53.875Z,1.82
2019-05-30T21:09:58.038Z,1.55
2019-05-30T21:15:05.432Z,2.00
2019-05-30T21:17:37.928Z,2.03
2019-05-30T21:20:11.981Z,2.02
2019-05-30T21:22:44.908Z,2.10
2019-05-30T21:25:17.445Z,2.00
2019-05-30T21:27:50.143Z,2.08
2019-05-30T21:30:22.568Z,2.12
2019-05-30T21:32:55.224Z,1.72
2019-05-30T21:35:27.583Z,2.05
2019-05-30T21:38:00.549Z,2.40
2019-05-30T21:43:06.850Z,1.98
2019-05-30T21:45:38.495Z,2.30
2019-05-30T21:48:11.454Z,2.77
2019-05-30T21:50:46.055Z,2.62
2019-05-30T21:53:19.812Z,4.95
2019-05-30T21:55:52.698Z,3.58
2019-05-30T21:58:25.466Z,3.15
2019-05-30T22:01:37.574Z,3.45
2019-05-30T22:04:10.790Z,2.47
2019-05-30T22:06:44.896Z,2.63
2019-05-30T22:09:17.974Z,2.37
2019-05-30T22:14:22.418Z,2.70
2019-05-30T22:19:25.532Z,2.40
2019-05-30T22:21:58.026Z,2.50
2019-05-30T22:24:30.753Z,2.15
2019-05-30T22:27:03.499Z,2.27
2019-05-30T22:29:35.590Z,2.37
2019-05-30T22:32:07.323Z,2.37
2019-05-30T22:34:41.077Z,2.50
2019-05-30T22:37:13.845Z,2.30
2019-05-30T22:39:46.810Z,2.12
2019-05-30T22:42:19.607Z,2.37
2019-05-30T22:44:52.305Z,2.50
2019-05-30T22:47:24.332Z,2.95
2019-05-30T22:49:57.142Z,2.40
2019-05-30T22:52:28.973Z,2.20
2019-05-30T22:55:01.758Z,2.53
2019-05-30T22:57:34.747Z,2.50
2019-05-30T23:02:38.379Z,2.30
2019-05-30T23:05:11.046Z,2.43
2019-05-30T23:10:15.627Z,2.47
2019-05-30T23:12:48.046Z,2.67
2019-05-30T23:15:20.120Z,2.90
2019-05-30T23:17:52.964Z,2.37
2019-05-30T23:22:57.165Z,2.60
2019-05-30T23:25:29.850Z,2.80
2019-05-30T23:28:02.272Z,3.15
2019-05-30T23:30:34.819Z,2.47
2019-05-30T23:33:06.971Z,2.10
2019-05-30T23:35:39.403Z,2.83
2019-05-30T23:38:12.181Z,2.47
2019-05-30T23:40:44.036Z,2.77
2019-05-30T23:43:16.522Z,2.30
2019-05-30T23:45:49.593Z,3.15
2019-05-30T23:48:22.189Z,2.62
2019-05-30T23:50:55.823Z,2.70
2019-05-30T23:53:28.988Z,3.05
2019-05-30T23:56:01.344Z,3.00
2019-05-30T23:58:33.327Z,2.98
